createdAt,value
2022-10-19T00:00:03.875Z,12.3
2022-10-19T00:10:01.208Z,12.3
2022-10-19T00:20:01.525Z,12.4
2022-10-19T00:30:01.995Z,12.3
2022-10-19T00:40:01.036Z,12.4
2022-10-19T00:50:02.694Z,12.3
2022-10-19T01:00:01.042Z,12.5
2022-10-19T01:10:00.139Z,12.2
2022-10-19T01:20:01.329Z,12.4
2022-10-19T01:30:00.988Z,12.3
2022-10-19T01:40:01.039Z,12.3
2022-10-19T01:50:00.116Z,12.2
2022-10-19T02:00:01.276Z,12.3
2022-10-19T02:10:00.187Z,12.3
2022-10-19T02:20:01.234Z,12.3
2022-10-19T02:30:01.017Z,12.5
2022-10-19T02:40:00.148Z,12.0
2022-10-19T02:50:00.787Z,12.3
2022-10-19T03:00:01.017Z,12.1
2022-10-19T03:10:01.028Z,12.1
2022-10-19T03:20:00.141Z,12.1
2022-10-19T03:30:00.148Z,12.1
2022-10-19T03:40:01.261Z,12.1
2022-10-19T03:50:00.988Z,12.1
2022-10-19T04:00:01.040Z,12.2
2022-10-19T04:10:00.994Z,12.2
2022-10-19T04:20:00.186Z,12.4
2022-10-19T04:30:00.113Z,12.2
2022-10-19T04:40:00.164Z,12.1
2022-10-19T04:50:01.266Z,12.2
2022-10-19T05:00:01.069Z,12.1
2022-10-19T05:10:00.108Z,12.2
2022-10-19T05:20:00.142Z,12.1
2022-10-19T05:30:01.051Z,12.1
2022-10-19T05:40:00.128Z,11.8
2022-10-19T05:50:01.102Z,11.6
2022-10-19T06:10:01.199Z,11.9
2022-10-19T06:20:01.100Z,11.9
2022-10-19T06:30:00.132Z,12.0
2022-10-19T06:40:03.527Z,12.0
2022-10-19T06:50:01.035Z,12.3
2022-10-19T07:00:01.039Z,12.2
2022-10-19T07:10:00.132Z,12.2
2022-10-19T07:20:00.154Z,12.3
2022-10-19T07:30:00.120Z,12.5
2022-10-19T07:40:01.031Z,12.6
2022-10-19T07:50:00.148Z,12.4
2022-10-19T08:00:01.156Z,12.8
2022-10-19T08:10:02.101Z,13.0
2022-10-19T08:20:01.055Z,12.9
2022-10-19T08:30:00.157Z,12.2
2022-10-19T08:40:01.017Z,12.8
2022-10-19T08:50:00.950Z,12.9
2022-10-19T09:10:01.019Z,13.2
2022-10-19T09:20:01.004Z,13.6
2022-10-19T09:30:01.009Z,13.7
2022-10-19T09:40:01.192Z,13.9
2022-10-19T09:50:00.165Z,13.8
2022-10-19T10:00:00.184Z,13.9
2022-10-19T10:10:01.256Z,14.8
2022-10-19T10:20:01.441Z,14.3
2022-10-19T10:30:01.261Z,14.4
2022-10-19T10:40:03.439Z,14.7
2022-10-19T10:50:00.159Z,14.2
2022-10-19T11:00:00.995Z,16.9
2022-10-19T11:10:01.050Z,17.5
2022-10-19T11:20:00.169Z,14.4
2022-10-19T11:30:00.149Z,17.3
2022-10-19T11:40:01.612Z,16.3
2022-10-19T11:50:01.021Z,14.8
2022-10-19T12:00:08.039Z,14.9
2022-10-19T12:10:00.152Z,15.8
2022-10-19T12:20:00.154Z,16.0
2022-10-19T12:30:01.468Z,15.1
2022-10-19T12:40:01.138Z,14.8
2022-10-19T12:50:01.067Z,15.1
2022-10-19T13:00:01.427Z,19.2
2022-10-19T13:10:01.466Z,18.6
2022-10-19T13:20:01.341Z,18.1
2022-10-19T13:30:00.982Z,16.8
2022-10-19T13:40:00.152Z,15.2
2022-10-19T13:50:01.243Z,17.6
2022-10-19T14:00:01.047Z,18.7
2022-10-19T14:10:00.998Z,18.3
2022-10-19T14:20:00.142Z,18.3
2022-10-19T14:30:01.026Z,19.2
2022-10-19T14:40:01.104Z,18.2
2022-10-19T14:50:00.138Z,17.9
2022-10-19T15:00:00.152Z,17.5
2022-10-19T15:10:01.493Z,16.8
2022-10-19T15:20:01.293Z,17.2
2022-10-19T15:30:00.217Z,16.4
2022-10-19T15:40:01.556Z,15.8
2022-10-19T15:50:01.469Z,15.2
2022-10-19T16:00:01.196Z,14.0
2022-10-19T16:10:01.529Z,13.6
2022-10-19T16:20:02.161Z,13.6
2022-10-19T16:30:00.123Z,13.4
2022-10-19T16:40:01.031Z,13.4
2022-10-19T16:50:00.996Z,13.2
2022-10-19T17:00:01.450Z,12.7
2022-10-19T17:10:01.305Z,12.3
2022-10-19T17:20:00.171Z,11.9
2022-10-19T17:30:01.261Z,12.0
2022-10-19T17:40:01.510Z,11.8
2022-10-19T17:50:01.986Z,11.6
2022-10-19T18:00:02.431Z,11.4
2022-10-19T18:10:01.431Z,11.0
2022-10-19T18:20:03.742Z,10.9
2022-10-19T18:30:00.143Z,10.7
2022-10-19T18:40:02.627Z,10.6
2022-10-19T18:50:00.142Z,10.5
2022-10-19T19:10:00.145Z,10.5
2022-10-19T19:20:01.727Z,10.2
2022-10-19T19:30:01.417Z,10.1
2022-10-19T19:40:01.206Z,10.1
2022-10-19T19:50:01.046Z,9.9
2022-10-19T20:00:03.139Z,9.9
2022-10-19T20:10:00.136Z,9.4
2022-10-19T20:20:01.495Z,9.3
2022-10-19T20:30:01.287Z,9.2
2022-10-19T20:40:01.498Z,9.0
2022-10-19T21:00:01.075Z,8.8
2022-10-19T21:10:00.987Z,8.6
2022-10-19T21:20:00.153Z,8.4
2022-10-19T21:30:02.020Z,8.5
2022-10-19T21:40:01.013Z,8.1
2022-10-19T21:50:00.133Z,8.0
2022-10-19T22:00:02.051Z,8.1
2022-10-19T22:10:01.209Z,7.9
2022-10-19T22:20:01.282Z,7.6
2022-10-19T22:30:01.004Z,7.6
2022-10-19T22:40:00.198Z,7.6
2022-10-19T22:50:00.123Z,7.4
2022-10-19T23:00:01.595Z,7.5
2022-10-19T23:10:01.034Z,7.3
2022-10-19T23:20:01.221Z,7.3
2022-10-19T23:30:00.124Z,7.2
2022-10-19T23:40:01.219Z,7.3
2022-10-19T23:50:01.449Z,7.1
